createdAt,value
2022-08-08T00:02:30.243Z,98388.75
2022-08-08T00:06:36.618Z,98396.78
2022-08-08T00:10:53.890Z,98397.69
2022-08-08T00:15:09.776Z,98390.75
2022-08-08T00:19:51.529Z,98395.19
2022-08-08T00:23:59.462Z,98392.88
2022-08-08T00:28:06.744Z,98395.75
2022-08-08T00:32:36.726Z,98396.47
2022-08-08T00:36:45.640Z,98395.88
2022-08-08T00:41:15.706Z,98403.59
2022-08-08T00:45:32.170Z,98399.94
2022-08-08T00:49:58.720Z,98388.09
2022-08-08T00:54:16.793Z,98386.84
2022-08-08T00:58:43.541Z,98408.06
2022-08-08T01:04:02.425Z,98404.13
2022-08-08T01:07:57.104Z,98387.69
2022-08-08T01:12:25.721Z,98390.44
2022-08-08T01:16:55.113Z,98391.16
2022-08-08T01:22:07.276Z,98384.06
2022-08-08T01:26:11.691Z,98384.59
2022-08-08T01:30:53.798Z,98397.31
2022-08-08T01:35:16.813Z,98393.41
2022-08-08T01:39:35.039Z,98396.66
2022-08-08T01:44:17.961Z,98384.84
2022-08-08T01:48:51.282Z,98379.56
2022-08-08T01:55:16.028Z,98395.13
2022-08-08T01:58:11.598Z,98404.28
2022-08-08T02:02:49.153Z,98408.50
2022-08-08T02:07:13.638Z,98408.66
2022-08-08T02:11:59.435Z,98409.53
2022-08-08T02:16:20.901Z,98408.41
2022-08-08T02:21:02.473Z,98408.06
2022-08-08T02:25:07.439Z,98405.31
2022-08-08T02:29:52.564Z,98402.94
2022-08-08T02:34:32.683Z,98388.75
2022-08-08T02:38:49.243Z,98407.44
2022-08-08T02:44:38.730Z,98410.88
2022-08-08T02:47:58.345Z,98415.06
2022-08-08T02:52:35.285Z,98414.66
2022-08-08T02:57:21.527Z,98421.66
2022-08-08T03:01:55.122Z,98421.50
2022-08-08T03:06:34.593Z,98415.81
2022-08-08T03:10:53.482Z,98421.34
2022-08-08T03:15:59.453Z,98414.19
2022-08-08T03:20:07.882Z,98408.06
2022-08-08T03:24:16.453Z,98416.25
2022-08-08T03:28:37.964Z,98417.66
2022-08-08T03:33:07.613Z,98419.84
2022-08-08T03:38:54.429Z,98416.59
2022-08-08T03:42:26.166Z,98415.47
2022-08-08T03:46:16.840Z,98411.19
2022-08-08T03:50:24.731Z,98408.06
2022-08-08T03:54:41.433Z,98410.75
2022-08-08T03:58:53.402Z,98422.63
2022-08-08T04:03:04.640Z,98423.38
2022-08-08T04:07:16.411Z,98431.78
2022-08-08T04:11:23.445Z,98422.22
2022-08-08T04:15:38.299Z,98426.19
2022-08-08T04:19:41.942Z,98428.41
2022-08-08T04:24:11.667Z,98433.94
2022-08-08T04:28:35.037Z,98423.75
2022-08-08T04:32:34.107Z,98431.19
2022-08-08T04:36:39.117Z,98428.31
2022-08-08T04:40:53.656Z,98421.47
2022-08-08T04:44:58.142Z,98428.00
2022-08-08T04:49:01.541Z,98429.41
2022-08-08T04:53:14.328Z,98436.16
2022-08-08T04:57:26.600Z,98450.91
2022-08-08T05:01:35.682Z,98458.72
2022-08-08T05:05:53.473Z,98455.75
2022-08-08T05:09:57.602Z,98457.06
2022-08-08T05:14:02.378Z,98458.13
2022-08-08T05:22:37.935Z,98463.09
2022-08-08T05:26:46.764Z,98466.47
2022-08-08T05:30:51.171Z,98463.56
2022-08-08T05:35:04.691Z,98464.75
2022-08-08T05:39:11.673Z,98470.44
2022-08-08T05:43:39.492Z,98473.59
2022-08-08T05:48:00.597Z,98472.84
2022-08-08T05:52:05.008Z,98475.53
2022-08-08T05:56:14.894Z,98480.94
2022-08-08T06:00:23.691Z,98477.06
2022-08-08T06:04:34.309Z,98469.56
2022-08-08T06:08:53.412Z,98479.41
2022-08-08T06:12:59.766Z,98474.53
2022-08-08T06:17:06.104Z,98483.72
2022-08-08T06:21:48.858Z,98487.41
2022-08-08T06:26:38.226Z,98484.34
2022-08-08T06:30:36.247Z,98495.78
2022-08-08T06:34:56.234Z,98496.63
2022-08-08T06:39:15.276Z,98505.53
2022-08-08T06:43:30.656Z,98507.25
2022-08-08T06:47:52.176Z,98513.09
2022-08-08T06:52:01.659Z,98511.53
2022-08-08T06:56:04.288Z,98520.69
2022-08-08T07:00:13.028Z,98523.94
2022-08-08T07:04:37.065Z,98517.56
2022-08-08T07:08:47.534Z,98527.47
2022-08-08T07:13:18.324Z,98517.72
2022-08-08T07:17:31.798Z,98523.47
2022-08-08T07:22:11.840Z,98522.09
2022-08-08T07:26:32.739Z,98518.41
2022-08-08T07:30:38.251Z,98525.47
2022-08-08T07:35:00.276Z,98514.09
2022-08-08T07:39:10.898Z,98508.56
2022-08-08T07:43:16.800Z,98506.91
2022-08-08T07:47:39.062Z,98517.94
2022-08-08T07:51:53.720Z,98518.63
2022-08-08T07:56:02.412Z,98513.09
2022-08-08T08:00:16.444Z,98497.56
2022-08-08T08:04:41.045Z,98505.34
2022-08-08T08:08:52.362Z,98506.38
2022-08-08T08:13:42.992Z,98507.81
2022-08-08T08:17:58.046Z,98508.81
2022-08-08T08:22:02.403Z,98506.28
2022-08-08T08:26:15.304Z,98515.38
2022-08-08T08:30:29.883Z,98501.41
2022-08-08T08:34:33.554Z,98509.41
2022-08-08T08:38:49.974Z,98514.38
2022-08-08T08:42:58.643Z,98508.28
2022-08-08T08:47:06.599Z,98506.63
2022-08-08T08:51:15.605Z,98498.22
2022-08-08T08:55:20.335Z,98508.94
2022-08-08T08:59:58.706Z,98497.00
2022-08-08T09:03:51.403Z,98499.25
2022-08-08T09:08:12.909Z,98492.50
2022-08-08T09:12:27.590Z,98490.44
2022-08-08T09:16:32.831Z,98493.00
2022-08-08T09:21:59.244Z,98494.38
2022-08-08T09:25:02.386Z,98483.66
2022-08-08T09:29:09.465Z,98482.97
2022-08-08T09:34:14.936Z,98480.00
2022-08-08T09:38:01.584Z,98474.66
2022-08-08T09:42:22.154Z,98470.03
2022-08-08T09:46:31.195Z,98461.47
2022-08-08T09:50:34.942Z,98461.88
2022-08-08T09:54:44.039Z,98448.16
2022-08-08T09:58:57.651Z,98448.13
2022-08-08T10:03:03.162Z,98456.69
2022-08-08T10:07:09.577Z,98459.47
2022-08-08T10:12:23.117Z,98445.72
2022-08-08T10:15:39.225Z,98433.16
2022-08-08T10:19:57.467Z,98427.63
2022-08-08T10:24:28.345Z,98421.69
2022-08-08T10:28:31.427Z,98411.50
2022-08-08T10:32:37.753Z,98412.28
2022-08-08T10:36:43.086Z,98418.09
2022-08-08T10:40:50.411Z,98425.59
2022-08-08T10:45:09.000Z,98424.81
2022-08-08T10:50:00.645Z,98427.09
2022-08-08T10:53:57.917Z,98421.63
2022-08-08T10:58:06.067Z,98408.81
2022-08-08T11:02:11.184Z,98418.97
2022-08-08T11:06:16.450Z,98418.19
2022-08-08T11:10:29.344Z,98422.50
2022-08-08T11:14:31.630Z,98433.56
2022-08-08T11:18:37.870Z,98435.97
2022-08-08T11:22:43.824Z,98429.69
2022-08-08T11:26:56.333Z,98451.66
2022-08-08T11:31:03.721Z,98493.69
2022-08-08T11:35:27.868Z,98519.63
2022-08-08T11:39:36.877Z,98557.34
2022-08-08T11:43:42.208Z,98575.03
2022-08-08T11:48:05.039Z,98579.47
2022-08-08T11:52:07.436Z,98579.59
2022-08-08T11:56:22.452Z,98530.31
2022-08-08T12:00:28.795Z,98499.81
2022-08-08T12:04:34.358Z,98466.88
2022-08-08T12:08:37.829Z,98487.97
2022-08-08T12:12:45.922Z,98513.75
2022-08-08T12:16:53.375Z,98525.81
2022-08-08T12:20:58.943Z,98548.75
2022-08-08T12:25:02.113Z,98579.53
2022-08-08T12:29:36.286Z,98568.28
2022-08-08T12:34:02.161Z,98553.13
2022-08-08T12:38:09.165Z,98530.56
2022-08-08T12:42:21.124Z,98535.38
2022-08-08T12:46:37.172Z,98535.91
2022-08-08T12:50:48.404Z,98502.16
2022-08-08T12:55:01.983Z,98473.31
2022-08-08T12:59:19.511Z,98446.31
2022-08-08T13:03:33.881Z,98426.38
2022-08-08T13:08:04.389Z,98432.97
2022-08-08T13:12:19.933Z,98445.31
2022-08-08T13:16:25.706Z,98439.38
2022-08-08T13:20:28.443Z,98454.22
2022-08-08T13:24:42.135Z,98459.13
2022-08-08T13:28:50.093Z,98444.59
2022-08-08T13:32:57.469Z,98438.06
2022-08-08T13:37:00.046Z,98437.19
2022-08-08T13:41:02.792Z,98420.91
2022-08-08T13:45:05.419Z,98410.47
2022-08-08T13:50:36.645Z,98408.16
2022-08-08T13:53:41.287Z,98405.31
2022-08-08T13:58:08.165Z,98399.19
2022-08-08T14:02:21.541Z,98406.72
2022-08-08T14:06:33.035Z,98408.44
2022-08-08T14:10:39.426Z,98413.50
2022-08-08T14:14:46.413Z,98400.88
2022-08-08T14:19:00.595Z,98399.38
2022-08-08T14:23:20.804Z,98409.47
2022-08-08T14:27:41.192Z,98421.16
2022-08-08T14:32:11.040Z,98423.97
2022-08-08T14:36:15.303Z,98430.75
2022-08-08T14:40:25.650Z,98440.88
2022-08-08T14:44:35.207Z,98464.91
2022-08-08T14:48:57.160Z,98458.94
2022-08-08T14:53:06.332Z,98454.22
2022-08-08T14:57:08.566Z,98462.84
2022-08-08T15:01:23.442Z,98462.22
2022-08-08T15:05:42.603Z,98454.91
2022-08-08T15:09:51.382Z,98468.81
2022-08-08T15:14:01.212Z,98483.13
2022-08-08T15:18:05.164Z,98475.59
2022-08-08T15:22:07.348Z,98476.25
2022-08-08T15:26:12.715Z,98471.28
2022-08-08T15:30:15.447Z,98475.59
2022-08-08T15:34:29.590Z,98475.59
2022-08-08T15:38:34.854Z,98472.78
2022-08-08T15:42:47.611Z,98464.72
2022-08-08T15:46:51.963Z,98453.50
2022-08-08T15:51:06.645Z,98457.97
2022-08-08T15:55:10.126Z,98453.94
2022-08-08T15:59:12.551Z,98452.94
2022-08-08T16:03:14.686Z,98459.41
2022-08-08T16:07:18.107Z,98452.09
2022-08-08T16:13:07.253Z,98454.94
2022-08-08T16:15:57.971Z,98451.13
2022-08-08T16:20:13.394Z,98440.84
2022-08-08T16:24:15.813Z,98425.63
2022-08-08T16:28:22.823Z,98432.44
2022-08-08T16:32:36.703Z,98430.59
2022-08-08T16:36:40.773Z,98417.25
2022-08-08T16:40:43.046Z,98435.81
2022-08-08T16:44:54.326Z,98437.09
2022-08-08T16:48:58.120Z,98448.53
2022-08-08T16:55:05.348Z,98455.94
2022-08-08T16:58:11.993Z,98481.06
2022-08-08T17:01:44.589Z,98492.19
2022-08-08T17:05:46.729Z,98504.47
2022-08-08T17:09:52.058Z,98521.25
2022-08-08T17:14:00.978Z,98537.91
2022-08-08T17:18:04.646Z,98545.22
2022-08-08T17:22:13.115Z,98535.53
2022-08-08T17:26:15.391Z,98539.13
2022-08-08T17:30:31.263Z,98555.16
2022-08-08T17:34:53.452Z,98560.78
2022-08-08T17:38:57.920Z,98568.16
2022-08-08T17:43:07.975Z,98577.50
2022-08-08T17:47:23.126Z,98575.91
2022-08-08T17:51:26.409Z,98572.91
2022-08-08T17:56:03.727Z,98574.75
2022-08-08T17:59:59.101Z,98567.75
2022-08-08T18:04:06.245Z,98566.88
2022-08-08T18:08:11.174Z,98571.25
2022-08-08T18:12:27.533Z,98577.63
2022-08-08T18:16:31.105Z,98583.06
2022-08-08T18:20:37.280Z,98584.41
2022-08-08T18:24:54.089Z,98575.47
2022-08-08T18:28:57.702Z,98582.56
2022-08-08T18:32:59.788Z,98592.13
2022-08-08T18:37:06.701Z,98585.69
2022-08-08T18:41:10.736Z,98589.00
2022-08-08T18:45:44.746Z,98596.81
2022-08-08T18:49:41.064Z,98593.53
2022-08-08T18:54:03.039Z,98591.78
2022-08-08T18:58:13.593Z,98586.72
2022-08-08T19:02:27.578Z,98577.34
2022-08-08T19:06:31.801Z,98584.16
2022-08-08T19:10:35.122Z,98593.69
2022-08-08T19:14:37.671Z,98594.41
2022-08-08T19:18:51.519Z,98601.84
2022-08-08T19:22:59.775Z,98590.41
2022-08-08T19:27:04.959Z,98584.53
2022-08-08T19:31:09.153Z,98590.47
2022-08-08T19:35:12.004Z,98599.00
2022-08-08T19:39:15.281Z,98604.28
2022-08-08T19:43:17.490Z,98606.88
2022-08-08T19:47:25.495Z,98610.84
2022-08-08T19:51:41.497Z,98608.78
2022-08-08T19:55:46.183Z,98601.22
2022-08-08T19:59:53.705Z,98610.13
2022-08-08T20:04:02.063Z,98611.25
2022-08-08T20:08:30.025Z,98608.44
2022-08-08T20:12:32.731Z,98604.38
2022-08-08T20:16:40.907Z,98598.03
2022-08-08T20:20:50.438Z,98596.34
2022-08-08T20:25:00.226Z,98613.41
2022-08-08T20:29:09.610Z,98611.03
2022-08-08T20:33:18.730Z,98603.03
2022-08-08T20:37:53.166Z,98606.78
2022-08-08T20:41:59.713Z,98600.66
2022-08-08T20:46:05.210Z,98615.78
2022-08-08T20:50:36.042Z,98620.44
2022-08-08T20:58:49.726Z,98618.75
2022-08-08T21:03:01.010Z,98621.63
2022-08-08T21:07:13.878Z,98609.19
2022-08-08T21:11:19.276Z,98617.13
2022-08-08T21:16:04.119Z,98610.88
2022-08-08T21:20:08.996Z,98607.19
2022-08-08T21:24:23.993Z,98601.44
2022-08-08T21:28:35.642Z,98597.63
2022-08-08T21:32:51.934Z,98600.53
2022-08-08T21:37:05.246Z,98612.75
2022-08-08T21:41:18.540Z,98619.13
2022-08-08T21:47:59.770Z,98616.00
2022-08-08T21:50:03.462Z,98629.03
2022-08-08T21:58:32.276Z,98617.50
2022-08-08T22:02:51.599Z,98614.22
2022-08-08T22:06:54.291Z,98616.28
2022-08-08T22:10:57.007Z,98625.13
2022-08-08T22:15:00.565Z,98621.38
2022-08-08T22:19:09.027Z,98630.84
2022-08-08T22:23:29.917Z,98634.69
2022-08-08T22:28:03.543Z,98640.38
2022-08-08T22:32:09.003Z,98626.53
2022-08-08T22:36:17.938Z,98628.97
2022-08-08T22:40:34.890Z,98627.53
2022-08-08T22:44:40.207Z,98642.97
2022-08-08T22:48:50.226Z,98647.75
2022-08-08T22:54:29.692Z,98638.06
2022-08-08T22:57:43.974Z,98636.91
2022-08-08T23:02:04.030Z,98632.56
2022-08-08T23:06:11.090Z,98618.72
2022-08-08T23:10:19.512Z,98628.22
2022-08-08T23:14:29.560Z,98624.84
2022-08-08T23:18:35.059Z,98639.97
2022-08-08T23:22:45.796Z,98652.50
2022-08-08T23:26:55.374Z,98648.06
2022-08-08T23:31:05.847Z,98638.44
2022-08-08T23:35:18.996Z,98638.44
2022-08-08T23:39:25.216Z,98632.88
2022-08-08T23:43:45.618Z,98642.34
2022-08-08T23:49:01.304Z,98639.75
2022-08-08T23:52:47.536Z,98638.50
2022-08-08T23:56:56.688Z,98635.75
